sensor_id;sensor_type;location;lat;lon;timestamp;pressure;altitude;pressure_sealevel;temperature;humidity
40612;BME280;26317;44.894;20.286;2022-09-27T00:02:11;99562.28;;;18.11;97.96
40612;BME280;26317;44.894;20.286;2022-09-27T00:04:44;99553.16;;;18.03;98.59
40612;BME280;26317;44.894;20.286;2022-09-27T00:07:25;99579.56;;;18.18;99.06
40612;BME280;26317;44.894;20.286;2022-09-27T00:09:55;99572.13;;;18.15;99.20
40612;BME280;26317;44.894;20.286;2022-09-27T00:12:37;99554.25;;;18.14;98.97
40612;BME280;26317;44.894;20.286;2022-09-27T00:15:10;99558.53;;;18.15;98.71
40612;BME280;26317;44.894;20.286;2022-09-27T00:17:45;99550.41;;;18.15;97.97
40612;BME280;26317;44.894;20.286;2022-09-27T00:20:21;99546.09;;;18.14;97.75
40612;BME280;26317;44.894;20.286;2022-09-27T00:22:59;99540.66;;;18.14;97.69
40612;BME280;26317;44.894;20.286;2022-09-27T00:25:35;99536.81;;;18.15;96.52
40612;BME280;26317;44.894;20.286;2022-09-27T00:28:08;99520.69;;;18.07;97.05
40612;BME280;26317;44.894;20.286;2022-09-27T00:30:41;99524.97;;;18.08;97.53
40612;BME280;26317;44.894;20.286;2022-09-27T00:33:10;99523.31;;;18.03;97.79
40612;BME280;26317;44.894;20.286;2022-09-27T00:35:39;99510.50;;;18.04;97.32
40612;BME280;26317;44.894;20.286;2022-09-27T00:38:14;99515.16;;;18.03;97.17
40612;BME280;26317;44.894;20.286;2022-09-27T00:40:47;99515.50;;;18.02;97.32
40612;BME280;26317;44.894;20.286;2022-09-27T00:43:24;99517.00;;;17.99;96.82
40612;BME280;26317;44.894;20.286;2022-09-27T00:46:02;99492.41;;;17.80;96.77
40612;BME280;26317;44.894;20.286;2022-09-27T00:48:35;99518.44;;;17.97;97.06
40612;BME280;26317;44.894;20.286;2022-09-27T00:51:14;99518.34;;;17.93;96.98
40612;BME280;26317;44.894;20.286;2022-09-27T00:53:50;99507.03;;;17.91;97.20
40612;BME280;26317;44.894;20.286;2022-09-27T00:56:29;99496.00;;;17.84;97.23
40612;BME280;26317;44.894;20.286;2022-09-27T00:59:07;99505.81;;;17.88;97.58
40612;BME280;26317;44.894;20.286;2022-09-27T01:01:40;99515.88;;;17.88;97.25
40612;BME280;26317;44.894;20.286;2022-09-27T01:04:21;99515.09;;;17.87;96.77
40612;BME280;26317;44.894;20.286;2022-09-27T01:06:53;99508.44;;;17.85;97.26
40612;BME280;26317;44.894;20.286;2022-09-27T01:09:26;99515.78;;;17.84;97.48
40612;BME280;26317;44.894;20.286;2022-09-27T01:12:32;99503.69;;;17.82;97.67
40612;BME280;26317;44.894;20.286;2022-09-27T01:15:18;99489.69;;;17.80;97.79
40612;BME280;26317;44.894;20.286;2022-09-27T01:18:11;99490.47;;;17.80;97.89
40612;BME280;26317;44.894;20.286;2022-09-27T01:21:10;99483.47;;;17.79;98.33
40612;BME280;26317;44.894;20.286;2022-09-27T01:24:06;99471.81;;;17.79;98.01
40612;BME280;26317;44.894;20.286;2022-09-27T01:30:20;99465.25;;;17.80;98.23
40612;BME280;26317;44.894;20.286;2022-09-27T01:33:15;99466.06;;;17.80;98.85
40612;BME280;26317;44.894;20.286;2022-09-27T01:36:01;99439.53;;;17.74;98.74
40612;BME280;26317;44.894;20.286;2022-09-27T01:39:06;99454.88;;;17.82;98.69
40612;BME280;26317;44.894;20.286;2022-09-27T01:42:20;99452.50;;;17.80;99.06
40612;BME280;26317;44.894;20.286;2022-09-27T01:45:16;99455.13;;;17.77;99.05
40612;BME280;26317;44.894;20.286;2022-09-27T01:48:21;99454.31;;;17.76;98.78
40612;BME280;26317;44.894;20.286;2022-09-27T01:51:06;99448.81;;;17.73;99.08
40612;BME280;26317;44.894;20.286;2022-09-27T01:53:40;99456.69;;;17.78;99.68
40612;BME280;26317;44.894;20.286;2022-09-27T01:56:41;99428.38;;;17.63;100.00
40612;BME280;26317;44.894;20.286;2022-09-27T01:59:28;99446.09;;;17.73;100.00
40612;BME280;26317;44.894;20.286;2022-09-27T02:02:15;99448.81;;;17.73;100.00
40612;BME280;26317;44.894;20.286;2022-09-27T02:05:22;99457.97;;;17.68;100.00
40612;BME280;26317;44.894;20.286;2022-09-27T02:08:25;99456.84;;;17.69;100.00
40612;BME280;26317;44.894;20.286;2022-09-27T02:11:09;99457.19;;;17.68;100.00
40612;BME280;26317;44.894;20.286;2022-09-27T02:13:53;99453.75;;;17.71;100.00
40612;BME280;26317;44.894;20.286;2022-09-27T02:16:49;99443.28;;;17.69;100.00
40612;BME280;26317;44.894;20.286;2022-09-27T02:19:37;99447.13;;;17.68;100.00
40612;BME280;26317;44.894;20.286;2022-09-27T02:22:31;99433.09;;;17.66;99.96
40612;BME280;26317;44.894;20.286;2022-09-27T02:25:12;99411.22;;;17.59;99.89
40612;BME280;26317;44.894;20.286;2022-09-27T02:27:53;99417.63;;;17.67;100.00
40612;BME280;26317;44.894;20.286;2022-09-27T02:30:45;99410.63;;;17.66;100.00
40612;BME280;26317;44.894;20.286;2022-09-27T02:33:29;99422.38;;;17.70;100.00
40612;BME280;26317;44.894;20.286;2022-09-27T02:36:06;99419.91;;;17.65;99.75
40612;BME280;26317;44.894;20.286;2022-09-27T02:38:55;99423.75;;;17.64;100.00
40612;BME280;26317;44.894;20.286;2022-09-27T02:41:29;99393.72;;;17.44;100.00
40612;BME280;26317;44.894;20.286;2022-09-27T02:44:04;99413.78;;;17.56;100.00
40612;BME280;26317;44.894;20.286;2022-09-27T02:46:55;99398.88;;;17.49;100.00
40612;BME280;26317;44.894;20.286;2022-09-27T02:49:43;99412.44;;;17.49;100.00
40612;BME280;26317;44.894;20.286;2022-09-27T02:52:45;99409.22;;;17.44;100.00
40612;BME280;26317;44.894;20.286;2022-09-27T02:55:33;99396.22;;;17.37;100.00
40612;BME280;26317;44.894;20.286;2022-09-27T02:59:09;99409.72;;;17.49;100.00
40612;BME280;26317;44.894;20.286;2022-09-27T03:02:10;99414.72;;;17.47;100.00
40612;BME280;26317;44.894;20.286;2022-09-27T03:05:02;99405.81;;;17.47;100.00
40612;BME280;26317;44.894;20.286;2022-09-27T03:07:37;99420.16;;;17.47;100.00
40612;BME280;26317;44.894;20.286;2022-09-27T03:10:19;99415.16;;;17.49;100.00
40612;BME280;26317;44.894;20.286;2022-09-27T03:13:06;99388.31;;;17.44;100.00
40612;BME280;26317;44.894;20.286;2022-09-27T03:15:39;99404.06;;;17.55;100.00
40612;BME280;26317;44.894;20.286;2022-09-27T03:18:50;99395.94;;;17.55;100.00
40612;BME280;26317;44.894;20.286;2022-09-27T03:22:04;99389.72;;;17.54;100.00
40612;BME280;26317;44.894;20.286;2022-09-27T03:24:41;99399.13;;;17.57;100.00
40612;BME280;26317;44.894;20.286;2022-09-27T03:27:18;99401.38;;;17.55;100.00
40612;BME280;26317;44.894;20.286;2022-09-27T03:30:13;99387.63;;;17.47;100.00
40612;BME280;26317;44.894;20.286;2022-09-27T03:32:46;99375.31;;;17.38;100.00
40612;BME280;26317;44.894;20.286;2022-09-27T03:35:36;99386.81;;;17.47;100.00
40612;BME280;26317;44.894;20.286;2022-09-27T03:38:09;99390.75;;;17.49;100.00
40612;BME280;26317;44.894;20.286;2022-09-27T03:40:41;99377.34;;;17.41;100.00
40612;BME280;26317;44.894;20.286;2022-09-27T03:43:13;99365.97;;;17.35;100.00
40612;BME280;26317;44.894;20.286;2022-09-27T03:45:48;99376.31;;;17.45;100.00
40612;BME280;26317;44.894;20.286;2022-09-27T03:48:25;99373.06;;;17.40;100.00
40612;BME280;26317;44.894;20.286;2022-09-27T03:50:59;99368.00;;;17.38;100.00
40612;BME280;26317;44.894;20.286;2022-09-27T03:53:33;99371.63;;;17.30;100.00
40612;BME280;26317;44.894;20.286;2022-09-27T03:56:07;99362.16;;;17.24;100.00
40612;BME280;26317;44.894;20.286;2022-09-27T03:58:42;99339.72;;;17.12;100.00
40612;BME280;26317;44.894;20.286;2022-09-27T04:01:19;99326.75;;;17.05;100.00
40612;BME280;26317;44.894;20.286;2022-09-27T04:03:58;99352.00;;;17.21;100.00
40612;BME280;26317;44.894;20.286;2022-09-27T04:06:44;99352.91;;;17.25;100.00
40612;BME280;26317;44.894;20.286;2022-09-27T04:09:16;99348.88;;;17.19;100.00
40612;BME280;26317;44.894;20.286;2022-09-27T04:11:55;99357.53;;;17.25;100.00
40612;BME280;26317;44.894;20.286;2022-09-27T04:14:36;99344.81;;;17.13;100.00
40612;BME280;26317;44.894;20.286;2022-09-27T04:17:41;99362.00;;;17.33;100.00
40612;BME280;26317;44.894;20.286;2022-09-27T04:20:33;99328.53;;;17.13;100.00
40612;BME280;26317;44.894;20.286;2022-09-27T04:23:10;99363.03;;;17.28;100.00
40612;BME280;26317;44.894;20.286;2022-09-27T04:26:02;99360.00;;;17.30;100.00
40612;BME280;26317;44.894;20.286;2022-09-27T04:29:00;99362.38;;;17.31;100.00
40612;BME280;26317;44.894;20.286;2022-09-27T04:31:51;99348.81;;;17.31;100.00
40612;BME280;26317;44.894;20.286;2022-09-27T04:34:46;99357.75;;;17.32;100.00
40612;BME280;26317;44.894;20.286;2022-09-27T04:37:38;99346.59;;;17.21;100.00
40612;BME280;26317;44.894;20.286;2022-09-27T04:40:32;99358.41;;;17.29;100.00
40612;BME280;26317;44.894;20.286;2022-09-27T04:43:04;99351.09;;;17.17;100.00
40612;BME280;26317;44.894;20.286;2022-09-27T04:45:39;99359.00;;;17.22;100.00
40612;BME280;26317;44.894;20.286;2022-09-27T04:48:09;99355.16;;;17.23;100.00
40612;BME280;26317;44.894;20.286;2022-09-27T04:50:55;99363.31;;;17.23;100.00
40612;BME280;26317;44.894;20.286;2022-09-27T04:53:26;99365.56;;;17.21;100.00
40612;BME280;26317;44.894;20.286;2022-09-27T04:56:01;99375.28;;;17.22;100.00
40612;BME280;26317;44.894;20.286;2022-09-27T04:58:37;99379.56;;;17.23;100.00
40612;BME280;26317;44.894;20.286;2022-09-27T05:01:08;99380.78;;;17.26;100.00
40612;BME280;26317;44.894;20.286;2022-09-27T05:04:01;99364.84;;;17.24;100.00
40612;BME280;26317;44.894;20.286;2022-09-27T05:06:49;99359.91;;;17.26;100.00
40612;BME280;26317;44.894;20.286;2022-09-27T05:09:36;99356.28;;;17.22;100.00
40612;BME280;26317;44.894;20.286;2022-09-27T05:12:08;99355.41;;;17.18;100.00
40612;BME280;26317;44.894;20.286;2022-09-27T05:14:59;99366.91;;;17.27;100.00
40612;BME280;26317;44.894;20.286;2022-09-27T05:18:08;99366.91;;;17.27;100.00
40612;BME280;26317;44.894;20.286;2022-09-27T05:21:07;99372.75;;;17.29;100.00
40612;BME280;26317;44.894;20.286;2022-09-27T05:23:57;99344.09;;;17.16;100.00
40612;BME280;26317;44.894;20.286;2022-09-27T05:26:28;99360.19;;;17.37;100.00
40612;BME280;26317;44.894;20.286;2022-09-27T05:29:12;99339.44;;;17.29;100.00
40612;BME280;26317;44.894;20.286;2022-09-27T05:31:50;99348.38;;;17.29;100.00
40612;BME280;26317;44.894;20.286;2022-09-27T05:34:23;99350.28;;;17.29;100.00
40612;BME280;26317;44.894;20.286;2022-09-27T05:37:03;99351.06;;;17.29;100.00
40612;BME280;26317;44.894;20.286;2022-09-27T05:39:42;99348.16;;;17.22;100.00
40612;BME280;26317;44.894;20.286;2022-09-27T05:42:16;99338.03;;;17.19;100.00
40612;BME280;26317;44.894;20.286;2022-09-27T05:44:50;99336.34;;;17.15;100.00
40612;BME280;26317;44.894;20.286;2022-09-27T05:47:25;99357.75;;;17.32;100.00
40612;BME280;26317;44.894;20.286;2022-09-27T05:50:06;99350.13;;;17.37;100.00
40612;BME280;26317;44.894;20.286;2022-09-27T05:52:40;99353.84;;;17.45;100.00
40612;BME280;26317;44.894;20.286;2022-09-27T05:55:24;99335.56;;;17.42;100.00
40612;BME280;26317;44.894;20.286;2022-09-27T05:57:58;99330.44;;;17.53;100.00
40612;BME280;26317;44.894;20.286;2022-09-27T06:00:53;99306.53;;;17.42;100.00
40612;BME280;26317;44.894;20.286;2022-09-27T06:03:51;99325.22;;;17.60;100.00
40612;BME280;26317;44.894;20.286;2022-09-27T06:06:41;99318.91;;;17.56;100.00
40612;BME280;26317;44.894;20.286;2022-09-27T06:09:12;99310.66;;;17.52;100.00
40612;BME280;26317;44.894;20.286;2022-09-27T06:12:06;99333.69;;;17.58;100.00
40612;BME280;26317;44.894;20.286;2022-09-27T06:14:38;99334.16;;;17.60;100.00
40612;BME280;26317;44.894;20.286;2022-09-27T06:17:21;99341.03;;;17.58;100.00
40612;BME280;26317;44.894;20.286;2022-09-27T06:19:54;99341.25;;;17.65;100.00
40612;BME280;26317;44.894;20.286;2022-09-27T06:22:25;99316.63;;;17.58;100.00
40612;BME280;26317;44.894;20.286;2022-09-27T06:25:01;99335.47;;;17.66;100.00
40612;BME280;26317;44.894;20.286;2022-09-27T06:27:45;99352.03;;;17.77;100.00
40612;BME280;26317;44.894;20.286;2022-09-27T06:30:27;99337.34;;;17.78;100.00
40612;BME280;26317;44.894;20.286;2022-09-27T06:33:11;99312.09;;;17.62;100.00
40612;BME280;26317;44.894;20.286;2022-09-27T06:35:54;99342.16;;;17.84;100.00
40612;BME280;26317;44.894;20.286;2022-09-27T06:38:24;99344.97;;;17.88;100.00
40612;BME280;26317;44.894;20.286;2022-09-27T06:41:21;99341.53;;;17.91;100.00
40612;BME280;26317;44.894;20.286;2022-09-27T06:44:32;99339.47;;;18.00;100.00
40612;BME280;26317;44.894;20.286;2022-09-27T06:47:34;99326.06;;;17.91;100.00
40612;BME280;26317;44.894;20.286;2022-09-27T06:50:43;99313.81;;;17.82;100.00
40612;BME280;26317;44.894;20.286;2022-09-27T06:53:25;99339.66;;;18.07;100.00
40612;BME280;26317;44.894;20.286;2022-09-27T06:55:57;99341.13;;;18.20;100.00
40612;BME280;26317;44.894;20.286;2022-09-27T06:58:42;99328.44;;;18.24;100.00
40612;BME280;26317;44.894;20.286;2022-09-27T07:01:48;99338.53;;;18.24;100.00
40612;BME280;26317;44.894;20.286;2022-09-27T07:04:41;99336.16;;;18.22;100.00
40612;BME280;26317;44.894;20.286;2022-09-27T07:07:39;99321.44;;;18.23;100.00
40612;BME280;26317;44.894;20.286;2022-09-27T07:10:22;99329.69;;;18.27;100.00
40612;BME280;26317;44.894;20.286;2022-09-27T07:12:54;99324.78;;;18.32;100.00
40612;BME280;26317;44.894;20.286;2022-09-27T07:15:31;99331.09;;;18.36;100.00
40612;BME280;26317;44.894;20.286;2022-09-27T07:18:31;99298.94;;;18.23;100.00
40612;BME280;26317;44.894;20.286;2022-09-27T07:21:07;99335.88;;;18.43;100.00
40612;BME280;26317;44.894;20.286;2022-09-27T07:23:46;99317.94;;;18.38;100.00
40612;BME280;26317;44.894;20.286;2022-09-27T07:26:18;99320.13;;;18.49;100.00
40612;BME280;26317;44.894;20.286;2022-09-27T07:29:01;99306.72;;;18.40;100.00
40612;BME280;26317;44.894;20.286;2022-09-27T07:31:36;99320.72;;;18.58;100.00
40612;BME280;26317;44.894;20.286;2022-09-27T07:34:26;99313.03;;;18.60;100.00
40612;BME280;26317;44.894;20.286;2022-09-27T07:37:05;99315.47;;;18.65;100.00
40612;BME280;26317;44.894;20.286;2022-09-27T07:39:44;99308.19;;;18.69;100.00
40612;BME280;26317;44.894;20.286;2022-09-27T07:42:20;99288.47;;;18.72;100.00
40612;BME280;26317;44.894;20.286;2022-09-27T07:44:58;99299.34;;;18.91;100.00
40612;BME280;26317;44.894;20.286;2022-09-27T07:47:44;99297.59;;;18.99;100.00
40612;BME280;26317;44.894;20.286;2022-09-27T07:50:42;99296.38;;;19.15;100.00
40612;BME280;26317;44.894;20.286;2022-09-27T07:53:34;99303.88;;;19.22;100.00
40612;BME280;26317;44.894;20.286;2022-09-27T07:56:40;99302.25;;;19.37;99.03
40612;BME280;26317;44.894;20.286;2022-09-27T07:59:21;99301.50;;;19.40;96.49
40612;BME280;26317;44.894;20.286;2022-09-27T08:01:53;99306.81;;;19.52;97.39
40612;BME280;26317;44.894;20.286;2022-09-27T08:04:36;99298.50;;;19.64;98.33
40612;BME280;26317;44.894;20.286;2022-09-27T08:07:17;99297.34;;;19.65;97.62
40612;BME280;26317;44.894;20.286;2022-09-27T08:09:55;99256.22;;;19.47;97.05
40612;BME280;26317;44.894;20.286;2022-09-27T08:12:28;99273.09;;;19.56;96.05
40612;BME280;26317;44.894;20.286;2022-09-27T08:14:59;99308.91;;;19.81;94.98
40612;BME280;26317;44.894;20.286;2022-09-27T08:17:36;99310.13;;;19.84;95.29
40612;BME280;26317;44.894;20.286;2022-09-27T08:20:19;99298.44;;;19.83;94.24
40612;BME280;26317;44.894;20.286;2022-09-27T08:23:13;99292.41;;;19.93;93.80
40612;BME280;26317;44.894;20.286;2022-09-27T08:25:52;99291.09;;;20.06;93.42
40612;BME280;26317;44.894;20.286;2022-09-27T08:28:54;99255.03;;;19.90;92.85
40612;BME280;26317;44.894;20.286;2022-09-27T08:31:34;99278.72;;;20.12;94.01
40612;BME280;26317;44.894;20.286;2022-09-27T08:34:03;99269.94;;;20.23;93.21
40612;BME280;26317;44.894;20.286;2022-09-27T08:36:38;99272.38;;;20.28;93.28
40612;BME280;26317;44.894;20.286;2022-09-27T08:39:24;99263.91;;;20.33;92.45
40612;BME280;26317;44.894;20.286;2022-09-27T08:42:16;99259.66;;;20.35;91.79
40612;BME280;26317;44.894;20.286;2022-09-27T08:45:11;99269.94;;;20.45;92.89
40612;BME280;26317;44.894;20.286;2022-09-27T08:47:54;99266.78;;;20.43;92.63
40612;BME280;26317;44.894;20.286;2022-09-27T08:50:34;99266.94;;;20.54;92.58
40612;BME280;26317;44.894;20.286;2022-09-27T08:53:20;99268.50;;;20.55;91.74
40612;BME280;26317;44.894;20.286;2022-09-27T08:56:07;99257.28;;;20.60;92.72
40612;BME280;26317;44.894;20.286;2022-09-27T08:58:51;99249.22;;;20.67;91.28
40612;BME280;26317;44.894;20.286;2022-09-27T09:04:30;99254.06;;;20.81;90.81
40612;BME280;26317;44.894;20.286;2022-09-27T09:07:20;99250.09;;;20.75;90.92
40612;BME280;26317;44.894;20.286;2022-09-27T09:10:02;99243.72;;;20.63;90.61
40612;BME280;26317;44.894;20.286;2022-09-27T09:12:53;99221.88;;;20.60;89.18
40612;BME280;26317;44.894;20.286;2022-09-27T09:16:01;99229.91;;;20.79;88.46
40612;BME280;26317;44.894;20.286;2022-09-27T09:19:08;99222.63;;;20.87;89.81
40612;BME280;26317;44.894;20.286;2022-09-27T09:22:35;99229.25;;;20.89;87.45
40612;BME280;26317;44.894;20.286;2022-09-27T09:25:26;99235.03;;;20.84;87.12
40612;BME280;26317;44.894;20.286;2022-09-27T09:28:25;99232.53;;;21.02;85.87
40612;BME280;26317;44.894;20.286;2022-09-27T09:31:09;99239.00;;;21.20;86.53
40612;BME280;26317;44.894;20.286;2022-09-27T09:33:50;99228.97;;;21.31;84.34
40612;BME280;26317;44.894;20.286;2022-09-27T09:36:36;99227.50;;;21.37;84.33
40612;BME280;26317;44.894;20.286;2022-09-27T09:39:16;99217.34;;;21.38;83.55
40612;BME280;26317;44.894;20.286;2022-09-27T09:42:14;99227.94;;;21.43;80.67
40612;BME280;26317;44.894;20.286;2022-09-27T09:44:55;99228.75;;;21.47;81.00
40612;BME280;26317;44.894;20.286;2022-09-27T09:47:43;99224.25;;;21.65;80.96
40612;BME280;26317;44.894;20.286;2022-09-27T09:50:25;99221.69;;;21.83;80.57
40612;BME280;26317;44.894;20.286;2022-09-27T09:53:08;99219.41;;;21.92;76.03
40612;BME280;26317;44.894;20.286;2022-09-27T09:55:53;99211.31;;;21.99;75.78
40612;BME280;26317;44.894;20.286;2022-09-27T09:58:55;99194.47;;;21.93;74.93
40612;BME280;26317;44.894;20.286;2022-09-27T10:01:41;99155.03;;;21.91;77.25
40612;BME280;26317;44.894;20.286;2022-09-27T10:04:23;99214.28;;;22.38;74.15
40612;BME280;26317;44.894;20.286;2022-09-27T10:07:06;99191.59;;;22.27;74.77
40612;BME280;26317;44.894;20.286;2022-09-27T10:09:41;99203.41;;;22.48;72.57
40612;BME280;26317;44.894;20.286;2022-09-27T10:12:22;99180.75;;;22.44;73.99
40612;BME280;26317;44.894;20.286;2022-09-27T10:14:57;99167.81;;;22.34;72.86
40612;BME280;26317;44.894;20.286;2022-09-27T10:17:55;99167.06;;;22.37;70.87
40612;BME280;26317;44.894;20.286;2022-09-27T10:20:34;99193.31;;;22.56;71.11
40612;BME280;26317;44.894;20.286;2022-09-27T10:23:14;99172.59;;;22.55;71.23
40612;BME280;26317;44.894;20.286;2022-09-27T10:26:12;99196.47;;;22.65;70.97
40612;BME280;26317;44.894;20.286;2022-09-27T10:28:48;99202.28;;;22.57;70.27
40612;BME280;26317;44.894;20.286;2022-09-27T10:31:25;99189.00;;;22.59;70.55
40612;BME280;26317;44.894;20.286;2022-09-27T10:34:32;99159.31;;;22.50;72.55
40612;BME280;26317;44.894;20.286;2022-09-27T10:37:27;99199.56;;;22.57;71.12
40612;BME280;26317;44.894;20.286;2022-09-27T10:40:26;99201.13;;;22.61;70.49
40612;BME280;26317;44.894;20.286;2022-09-27T10:43:26;99192.13;;;22.50;69.83
40612;BME280;26317;44.894;20.286;2022-09-27T10:46:32;99183.91;;;22.50;69.48
40612;BME280;26317;44.894;20.286;2022-09-27T10:49:34;99183.94;;;22.54;72.95
40612;BME280;26317;44.894;20.286;2022-09-27T10:52:41;99105.19;;;21.97;71.08
40612;BME280;26317;44.894;20.286;2022-09-27T10:55:22;99169.75;;;22.30;69.69
40612;BME280;26317;44.894;20.286;2022-09-27T10:58:01;99146.31;;;22.26;71.49
40612;BME280;26317;44.894;20.286;2022-09-27T11:00:39;99138.53;;;22.31;72.37
40612;BME280;26317;44.894;20.286;2022-09-27T11:03:27;99149.53;;;22.45;71.89
40612;BME280;26317;44.894;20.286;2022-09-27T11:06:26;99163.97;;;22.46;73.66
40612;BME280;26317;44.894;20.286;2022-09-27T11:09:21;99158.50;;;22.46;72.52
40612;BME280;26317;44.894;20.286;2022-09-27T11:12:15;99149.50;;;22.38;72.57
40612;BME280;26317;44.894;20.286;2022-09-27T11:15:13;99162.78;;;22.40;71.45
40612;BME280;26317;44.894;20.286;2022-09-27T11:18:01;99158.47;;;22.39;70.49
40612;BME280;26317;44.894;20.286;2022-09-27T11:20:38;99154.13;;;22.31;74.36
40612;BME280;26317;44.894;20.286;2022-09-27T11:23:33;99154.88;;;22.21;73.11
40612;BME280;26317;44.894;20.286;2022-09-27T11:26:27;99154.41;;;22.08;72.89
40612;BME280;26317;44.894;20.286;2022-09-27T11:29:18;99150.03;;;21.96;72.88
40612;BME280;26317;44.894;20.286;2022-09-27T11:32:55;99137.41;;;21.78;74.39
40612;BME280;26317;44.894;20.286;2022-09-27T11:36:03;99127.16;;;21.64;75.90
40612;BME280;26317;44.894;20.286;2022-09-27T11:38:48;99111.75;;;21.38;76.38
40612;BME280;26317;44.894;20.286;2022-09-27T11:41:58;99119.09;;;21.31;81.61
40612;BME280;26317;44.894;20.286;2022-09-27T11:45:21;99126.13;;;21.32;83.40
40612;BME280;26317;44.894;20.286;2022-09-27T11:48:02;99122.97;;;21.30;85.20
40612;BME280;26317;44.894;20.286;2022-09-27T11:50:59;99125.25;;;21.21;85.01
40612;BME280;26317;44.894;20.286;2022-09-27T11:53:48;99128.50;;;21.37;83.38
40612;BME280;26317;44.894;20.286;2022-09-27T11:56:31;99121.56;;;21.46;81.64
40612;BME280;26317;44.894;20.286;2022-09-27T11:59:23;99073.00;;;21.19;83.73
40612;BME280;26317;44.894;20.286;2022-09-27T12:02:04;99115.22;;;21.35;81.14
40612;BME280;26317;44.894;20.286;2022-09-27T12:04:59;99127.69;;;21.33;80.61
40612;BME280;26317;44.894;20.286;2022-09-27T12:07:47;99124.47;;;21.20;81.52
40612;BME280;26317;44.894;20.286;2022-09-27T12:10:34;99119.28;;;21.11;83.38
40612;BME280;26317;44.894;20.286;2022-09-27T12:13:28;99100.88;;;21.01;83.14
40612;BME280;26317;44.894;20.286;2022-09-27T12:16:09;99096.03;;;20.84;84.25
40612;BME280;26317;44.894;20.286;2022-09-27T12:18:45;99115.53;;;20.86;84.16
40612;BME280;26317;44.894;20.286;2022-09-27T12:21:45;99124.81;;;20.82;85.55
40612;BME280;26317;44.894;20.286;2022-09-27T12:24:21;99130.97;;;20.75;85.37
40612;BME280;26317;44.894;20.286;2022-09-27T12:27:17;99117.94;;;20.58;83.93
40612;BME280;26317;44.894;20.286;2022-09-27T12:29:57;99117.34;;;20.42;84.72
40612;BME280;26317;44.894;20.286;2022-09-27T12:32:34;99141.56;;;20.50;84.79
40612;BME280;26317;44.894;20.286;2022-09-27T12:35:26;99130.03;;;20.31;85.65
40612;BME280;26317;44.894;20.286;2022-09-27T12:38:08;99118.53;;;20.14;86.23
40612;BME280;26317;44.894;20.286;2022-09-27T12:40:48;99150.94;;;19.97;86.32
40612;BME280;26317;44.894;20.286;2022-09-27T12:43:35;99156.75;;;19.69;89.28
40612;BME280;26317;44.894;20.286;2022-09-27T12:46:28;99162.63;;;19.48;91.89
40612;BME280;26317;44.894;20.286;2022-09-27T12:49:10;99164.88;;;19.23;94.32
40612;BME280;26317;44.894;20.286;2022-09-27T12:52:00;99156.97;;;18.96;96.07
40612;BME280;26317;44.894;20.286;2022-09-27T12:55:04;99163.09;;;18.70;99.06
40612;BME280;26317;44.894;20.286;2022-09-27T13:01:18;99249.84;;;17.81;95.80
40612;BME280;26317;44.894;20.286;2022-09-27T13:04:40;99259.16;;;17.24;93.42
40612;BME280;26317;44.894;20.286;2022-09-27T13:07:32;99261.97;;;17.00;96.05
40612;BME280;26317;44.894;20.286;2022-09-27T13:10:32;99252.56;;;16.82;98.35
40612;BME280;26317;44.894;20.286;2022-09-27T13:13:19;99207.47;;;16.62;98.85
40612;BME280;26317;44.894;20.286;2022-09-27T13:16:02;99183.47;;;16.60;100.00
40612;BME280;26317;44.894;20.286;2022-09-27T13:19:00;99200.94;;;16.50;100.00
40612;BME280;26317;44.894;20.286;2022-09-27T13:22:05;99215.84;;;16.56;100.00
40612;BME280;26317;44.894;20.286;2022-09-27T13:24:58;99207.47;;;16.62;100.00
40612;BME280;26317;44.894;20.286;2022-09-27T13:27:51;99210.50;;;16.72;100.00
40612;BME280;26317;44.894;20.286;2022-09-27T13:30:47;99184.44;;;16.95;100.00
40612;BME280;26317;44.894;20.286;2022-09-27T13:33:45;99180.69;;;17.28;100.00
40612;BME280;26317;44.894;20.286;2022-09-27T13:36:41;99175.28;;;17.43;100.00
40612;BME280;26317;44.894;20.286;2022-09-27T13:39:19;99171.44;;;17.44;99.28
40612;BME280;26317;44.894;20.286;2022-09-27T13:42:26;99166.34;;;17.27;95.22
40612;BME280;26317;44.894;20.286;2022-09-27T13:45:19;99163.03;;;17.34;95.43
40612;BME280;26317;44.894;20.286;2022-09-27T13:48:16;99144.94;;;17.38;94.01
40612;BME280;26317;44.894;20.286;2022-09-27T13:50:52;99150.09;;;17.43;94.19
40612;BME280;26317;44.894;20.286;2022-09-27T13:53:34;99138.03;;;17.40;92.79
40612;BME280;26317;44.894;20.286;2022-09-27T13:59:20;99144.50;;;17.52;94.28
40612;BME280;26317;44.894;20.286;2022-09-27T14:02:24;99152.72;;;17.71;91.75
40612;BME280;26317;44.894;20.286;2022-09-27T14:05:06;99116.19;;;17.65;89.65
40612;BME280;26317;44.894;20.286;2022-09-27T14:07:43;99149.38;;;17.93;89.95
40612;BME280;26317;44.894;20.286;2022-09-27T14:10:45;99148.06;;;18.03;89.71
40612;BME280;26317;44.894;20.286;2022-09-27T14:13:23;99122.41;;;18.00;86.15
40612;BME280;26317;44.894;20.286;2022-09-27T14:18:57;99110.44;;;18.20;81.51
40612;BME280;26317;44.894;20.286;2022-09-27T14:21:51;99128.66;;;18.39;85.29
40612;BME280;26317;44.894;20.286;2022-09-27T14:24:46;99141.31;;;18.51;86.31
40612;BME280;26317;44.894;20.286;2022-09-27T14:27:54;99147.00;;;18.61;85.64
40612;BME280;26317;44.894;20.286;2022-09-27T14:30:32;99162.44;;;18.57;85.62
40612;BME280;26317;44.894;20.286;2022-09-27T14:33:29;99169.94;;;18.64;86.69
40612;BME280;26317;44.894;20.286;2022-09-27T14:36:06;99178.22;;;18.71;87.01
40612;BME280;26317;44.894;20.286;2022-09-27T14:38:58;99174.22;;;18.65;87.74
40612;BME280;26317;44.894;20.286;2022-09-27T14:41:43;99150.59;;;18.50;87.17